Terminal Aerodrome Forecast
Issued by NWS

Home | Current Version | Previous Version | Graphics & Text | Print | Product List | Glossary On
Versions: 1 2 3 4 5 6 7 8 9 10 11 12 13 14
000
FTUS43 KUNR 181100
TAFGCC
TAF
KGCC 181120Z 1812/1912 17012KT P6SM BKN150
     FM181500 20018G28KT P6SM BKN150
     FM182300 29016KT P6SM BKN080=

USA.gov is the U.S. government's official web portal to all federal, state and local government web resources and services.